Time;durP1;ratioP1;P1;durP2;ratioP2;P2;SDS_P1;SDS_P2;PMS_P1;PMS_P2;Temp;Humidity;BMP_temperature;BMP_pressure;BME280_temperature;BME280_humidity;BME280_pressure;Samples;Min_cycle;Max_cycle;Signal;HPM_P1;HPM_P2
2022/06/25 00:01:11;;;;;;;8.90;2.65;;;;;;;27.72;44.00;96703.47;5112964;28;20406;-42
2022/06/25 00:03:37;;;;;;;9.40;2.60;;;;;;;27.69;43.71;96714.97;5113885;28;20051;-42
2022/06/25 00:06:03;;;;;;;6.03;2.10;;;;;;;27.75;43.77;96716.34;5113975;28;20043;-42
2022/06/25 00:08:29;;;;;;;9.98;2.47;;;;;;;27.75;43.64;96718.38;5113659;28;20039;-42
2022/06/25 00:10:55;;;;;;;10.65;2.75;;;;;;;27.77;43.60;96718.59;5113845;28;20506;-42
2022/06/25 00:13:21;;;;;;;9.70;2.80;;;;;;;27.72;43.91;96723.00;5112540;28;20020;-40
2022/06/25 00:15:47;;;;;;;11.32;3.33;;;;;;;27.74;43.57;96728.78;5113946;28;20062;-42
2022/06/25 00:18:18;;;;;;;6.50;2.47;;;;;;;27.85;43.41;96719.47;5114020;28;20023;-42
2022/06/25 00:20:47;;;;;;;7.47;2.30;;;;;;;27.75;43.40;96721.19;5113593;28;20449;-42
2022/06/25 00:23:13;;;;;;;11.85;2.70;;;;;;;27.81;43.21;96711.44;5112315;28;20031;-41
2022/06/25 00:25:38;;;;;;;10.02;3.10;;;;;;;27.80;43.37;96723.88;5116288;28;20024;-42
2022/06/25 00:28:04;;;;;;;8.25;2.67;;;;;;;27.75;43.35;96721.19;5117878;28;20027;-40
2022/06/25 00:30:31;;;;;;;8.15;2.72;;;;;;;27.73;43.50;96723.75;5117805;28;20034;-42
2022/06/25 00:32:57;;;;;;;6.97;2.80;;;;;;;27.71;43.55;96721.47;5117854;28;20459;-42
2022/06/25 00:35:23;;;;;;;13.23;2.90;;;;;;;27.68;43.96;96710.69;5117874;28;20070;-42
2022/06/25 00:37:48;;;;;;;7.13;2.42;;;;;;;27.73;43.35;96712.59;5117534;28;20115;-39
2022/06/25 00:40:14;;;;;;;9.43;3.20;;;;;;;27.79;43.17;96714.00;5117881;28;20118;-41
2022/06/25 00:42:47;;;;;;;9.68;2.30;;;;;;;27.78;43.43;96720.09;5117521;28;20020;-42
2022/06/25 00:45:14;;;;;;;8.32;2.60;;;;;;;27.85;43.04;96722.25;5117448;28;20097;-42
2022/06/25 00:47:39;;;;;;;8.05;2.60;;;;;;;27.72;43.39;96727.81;5117549;28;20379;-40
2022/06/25 00:50:08;;;;;;;8.68;2.30;;;;;;;27.73;43.50;96746.78;5117413;28;20019;-39
2022/06/25 00:52:35;;;;;;;7.55;2.30;;;;;;;27.76;43.26;96728.25;5117371;28;20020;-41
2022/06/25 00:55:11;;;;;;;7.63;2.47;;;;;;;27.75;43.07;96716.34;5116050;28;20028;-42
2022/06/25 00:57:43;;;;;;;7.25;2.92;;;;;;;27.77;43.00;96690.75;5117221;27;20574;-41
2022/06/25 01:00:14;;;;;;;8.90;2.80;;;;;;;27.75;43.33;96702.41;5117225;28;20027;-42
2022/06/25 01:02:41;;;;;;;7.75;2.55;;;;;;;27.79;43.02;96707.69;5116997;28;20526;-41
2022/06/25 01:05:12;;;;;;;9.07;2.67;;;;;;;27.68;43.28;96713.47;5117254;28;20513;-39
2022/06/25 01:07:39;;;;;;;9.38;2.00;;;;;;;27.79;43.32;96711.22;5117160;28;20027;-42
2022/06/25 01:10:08;;;;;;;11.43;2.88;;;;;;;27.82;43.19;96703.81;5117235;28;20024;-39
2022/06/25 01:12:35;;;;;;;11.43;3.22;;;;;;;27.82;43.19;96703.81;5117089;28;20016;-41
2022/06/25 01:15:09;;;;;;;6.80;2.78;;;;;;;27.86;43.08;96704.25;5117270;28;20405;-42
2022/06/25 01:18:07;;;;;;;7.22;2.53;;;;;;;27.75;43.44;96698.88;5117161;28;20023;-41
2022/06/25 01:20:34;;;;;;;9.23;2.88;;;;;;;27.90;42.73;96718.63;5093801;28;20066;-39
2022/06/25 01:22:59;;;;;;;9.18;2.42;;;;;;;27.80;43.28;96717.53;5116872;28;20019;-41
2022/06/25 01:25:32;;;;;;;10.50;2.33;;;;;;;27.82;42.93;96723.31;5116618;28;20034;-39
2022/06/25 01:27:59;;;;;;;7.78;2.47;;;;;;;27.86;42.86;96707.03;5116794;28;20144;-43
2022/06/25 01:30:24;;;;;;;4.88;2.15;;;;;;;27.77;43.22;96699.09;5116825;28;20380;-42
2022/06/25 01:32:51;;;;;;;7.68;3.17;;;;;;;27.78;43.03;96712.50;5116705;28;20022;-42
2022/06/25 01:35:17;;;;;;;7.10;2.75;;;;;;;27.79;43.15;96716.78;5116524;28;20023;-42
2022/06/25 01:37:42;;;;;;;6.75;2.47;;;;;;;27.73;43.06;96712.59;5115994;28;20085;-42
2022/06/25 01:40:08;;;;;;;6.65;2.80;;;;;;;27.81;43.16;96702.31;5116670;27;20090;-42
2022/06/25 01:45:18;;;;;;;7.95;2.92;;;;;;;27.83;42.49;96710.88;5116650;28;20140;-42
2022/06/25 01:47:43;;;;;;;10.93;3.05;;;;;;;27.85;42.50;96716.66;5116350;28;20059;-41
2022/06/25 01:50:10;;;;;;;8.07;2.50;;;;;;;27.81;42.57;96724.63;5116283;28;20023;-42
2022/06/25 01:52:36;;;;;;;6.00;2.30;;;;;;;27.81;42.58;96725.38;5116132;28;20028;-42
2022/06/25 01:55:03;;;;;;;6.60;2.78;;;;;;;27.83;42.60;96722.03;5116123;28;20019;-42
2022/06/25 01:57:28;;;;;;;7.28;2.20;;;;;;;27.85;42.62;96716.66;5115933;28;20105;-40
2022/06/25 01:59:54;;;;;;;6.07;2.20;;;;;;;27.86;42.72;96726.53;5114259;28;20031;-41
2022/06/25 02:02:21;;;;;;;7.30;2.80;;;;;;;27.85;42.29;96730.59;5114629;28;20034;-42
2022/06/25 02:04:46;;;;;;;5.88;2.50;;;;;;;27.73;42.82;96723.75;5116138;28;20023;-42
2022/06/25 02:07:12;;;;;;;6.45;2.83;;;;;;;27.81;42.77;96707.91;5115831;28;20026;-42
2022/06/25 02:09:37;;;;;;;7.35;2.60;;;;;;;27.85;42.53;96705.53;5116185;28;20419;-42
2022/06/25 02:12:04;;;;;;;8.45;2.70;;;;;;;27.86;42.27;96715.38;5115785;28;20249;-41
2022/06/25 02:14:30;;;;;;;6.55;2.90;;;;;;;27.81;42.45;96713.47;5115641;28;20430;-42
2022/06/25 02:16:56;;;;;;;7.88;3.22;;;;;;;27.77;42.69;96716.56;5115611;28;20023;-41
2022/06/25 02:19:21;;;;;;;8.93;2.83;;;;;;;27.81;42.62;96725.38;5115659;28;20031;-42
2022/06/25 02:21:47;;;;;;;10.57;3.00;;;;;;;27.90;42.04;96726.97;5115588;28;20077;-42
2022/06/25 02:24:12;;;;;;;7.15;2.55;;;;;;;27.79;42.29;96727.94;5115457;28;20023;-42
2022/06/25 02:26:38;;;;;;;7.70;2.47;;;;;;;27.84;42.37;96723.53;5115900;28;20043;-41
2022/06/25 02:29:04;;;;;;;8.10;2.20;;;;;;;27.81;42.34;96710.69;5115586;28;20421;-39
2022/06/25 02:31:30;;;;;;;8.27;3.42;;;;;;;27.80;42.46;96717.53;5115392;28;20028;-43
2022/06/25 02:33:56;;;;;;;6.70;2.35;;;;;;;27.78;42.26;96725.69;5114094;28;20110;-42
2022/06/25 02:36:21;;;;;;;9.05;3.55;;;;;;;27.77;42.33;96726.97;5115462;28;20129;-42
2022/06/25 02:38:47;;;;;;;7.10;2.50;;;;;;;27.66;42.41;96729.97;5115344;28;20069;-43
2022/06/25 02:41:12;;;;;;;7.10;2.30;;;;;;;27.77;42.26;96735.31;5115282;28;20080;-41
2022/06/25 02:43:38;;;;;;;8.52;2.90;;;;;;;27.72;42.13;96733.38;5115067;28;20438;-42
2022/06/25 02:46:03;;;;;;;6.40;3.00;;;;;;;27.75;42.43;96738.66;5115228;27;20429;-42
2022/06/25 02:48:29;;;;;;;8.32;2.72;;;;;;;27.71;42.09;96735.41;5114067;28;20022;-41
2022/06/25 02:50:55;;;;;;;10.80;2.60;;;;;;;27.70;42.50;96730.38;5115185;28;20020;-42
2022/06/25 02:53:20;;;;;;;10.38;3.20;;;;;;;27.70;42.18;96730.38;5115202;28;20020;-42
2022/06/25 03:01:14;;;;;;;7.82;2.85;;;;;;;27.73;41.92;96730.06;5114927;28;20497;-42
2022/06/25 03:03:39;;;;;;;12.00;2.80;;;;;;;27.72;41.93;96733.38;5114688;28;20028;-42
2022/06/25 03:06:05;;;;;;;8.30;2.92;;;;;;;27.66;42.58;96733.50;5114762;28;20072;-41
2022/06/25 03:08:30;;;;;;;10.07;2.75;;;;;;;27.63;42.16;96739.38;5114744;28;20026;-41
2022/06/25 03:10:56;;;;;;;8.07;2.85;;;;;;;27.62;42.30;96740.66;5114977;28;20032;-41
2022/06/25 03:13:22;;;;;;;8.25;2.60;;;;;;;27.70;42.55;96733.16;5113748;28;20016;-43
2022/06/25 03:15:47;;;;;;;6.78;2.70;;;;;;;27.69;42.48;96726.13;5114564;28;20019;-42
2022/06/25 03:18:13;;;;;;;6.80;2.47;;;;;;;27.70;42.02;96722.00;5114747;28;20069;-41
2022/06/25 03:20:38;;;;;;;5.97;2.33;;;;;;;27.66;42.36;96707.66;5114526;28;20054;-42
2022/06/25 03:23:04;;;;;;;7.75;2.75;;;;;;;27.66;42.42;96724.38;5114569;28;20027;-41
2022/06/25 03:25:30;;;;;;;8.88;2.50;;;;;;;27.68;42.35;96741.31;5113069;28;20019;-42
2022/06/25 03:27:56;;;;;;;5.78;2.50;;;;;;;27.61;42.32;96734.34;5113058;28;20371;-42
2022/06/25 03:30:21;;;;;;;9.80;3.60;;;;;;;27.64;42.38;96747.22;5114222;28;20024;-38
2022/06/25 03:32:47;;;;;;;7.22;2.80;;;;;;;27.58;42.68;96759.72;5114687;28;20020;-42
2022/06/25 03:35:12;;;;;;;8.07;2.80;;;;;;;27.67;42.61;96770.47;5114452;28;20023;-41
2022/06/25 03:37:38;;;;;;;6.85;2.92;;;;;;;27.62;42.68;96763.69;5114753;28;20059;-39
2022/06/25 03:40:04;;;;;;;10.65;2.42;;;;;;;27.67;42.44;96768.44;5114363;28;20035;-40
2022/06/25 03:42:29;;;;;;;11.18;2.72;;;;;;;27.62;42.91;96774.09;5114321;28;20456;-42
2022/06/25 03:44:55;;;;;;;7.95;2.53;;;;;;;27.56;42.60;96781.81;5114273;28;20057;-41
2022/06/25 03:47:20;;;;;;;7.70;3.75;;;;;;;27.57;42.75;96783.31;5114370;28;20023;-42
2022/06/25 03:49:46;;;;;;;10.75;3.10;;;;;;;27.59;42.79;96780.72;5114067;28;20460;-39
2022/06/25 03:52:11;;;;;;;11.13;3.38;;;;;;;27.60;42.55;96787.81;5113972;28;20031;-40
2022/06/25 03:54:36;;;;;;;10.00;3.05;;;;;;;27.60;42.83;96793.38;5114096;28;20054;-42
2022/06/25 03:57:03;;;;;;;9.73;3.75;;;;;;;27.57;43.05;96795.19;5113669;28;20047;-41
2022/06/25 03:59:29;;;;;;;8.40;3.75;;;;;;;27.57;42.80;96788.88;5113421;28;20027;-41
2022/06/25 04:01:55;;;;;;;9.20;3.22;;;;;;;27.58;43.12;96787.56;5113748;28;20103;-42
2022/06/25 04:04:21;;;;;;;9.55;3.90;;;;;;;27.60;42.90;96793.38;5114046;28;20118;-40
2022/06/25 04:06:46;;;;;;;11.90;3.55;;;;;;;27.60;42.95;96798.94;5113814;28;20424;-42
2022/06/25 04:09:12;;;;;;;10.15;3.33;;;;;;;27.58;42.64;96793.91;5113983;28;20050;-40
2022/06/25 04:11:38;;;;;;;11.30;3.40;;;;;;;27.58;43.16;96798.72;5113926;28;20031;-42
2022/06/25 04:14:04;;;;;;;9.88;3.28;;;;;;;27.58;43.23;96790.38;5112472;28;20027;-42
2022/06/25 04:16:30;;;;;;;10.80;3.50;;;;;;;27.56;43.09;96790.91;5112494;28;20019;-42
2022/06/25 04:18:55;;;;;;;9.32;3.72;;;;;;;27.54;43.32;96790.66;5113864;28;20383;-41
2022/06/25 04:21:21;;;;;;;9.45;2.88;;;;;;;27.61;42.97;96792.09;5113733;28;20089;-39
2022/06/25 04:23:47;;;;;;;6.63;2.75;;;;;;;27.61;42.99;96794.88;5113613;28;20035;-40
2022/06/25 04:26:12;;;;;;;8.30;2.95;;;;;;;27.57;42.77;96786.09;5113753;28;20020;-38
2022/06/25 04:31:22;;;;;;;9.13;2.80;;;;;;;27.56;42.82;96784.59;5114023;28;20042;-42
2022/06/25 04:33:47;;;;;;;7.85;3.08;;;;;;;27.53;43.40;96794.72;5113784;28;20459;-40
2022/06/25 04:36:13;;;;;;;8.45;3.00;;;;;;;27.52;43.42;96793.97;5112498;28;20468;-41
2022/06/25 04:38:40;;;;;;;10.73;3.53;;;;;;;27.54;43.18;96797.00;5113495;28;20023;-40
2022/06/25 04:41:05;;;;;;;11.27;3.05;;;;;;;27.53;43.03;96809.41;5113529;28;20208;-40
2022/06/25 04:43:31;;;;;;;10.05;3.40;;;;;;;27.48;43.45;96801.88;5113419;28;20119;-42
2022/06/25 04:45:56;;;;;;;13.35;3.45;;;;;;;27.49;43.55;96800.59;5113518;28;20028;-43
2022/06/25 04:48:22;;;;;;;8.25;3.20;;;;;;;27.46;43.30;96787.72;5113518;28;20145;-40
2022/06/25 04:50:47;;;;;;;11.38;3.38;;;;;;;27.54;43.14;96774.69;5113604;28;20446;-42
2022/06/25 04:53:13;;;;;;;12.45;3.20;;;;;;;27.47;43.67;96757.84;5113787;28;20022;-43
2022/06/25 04:55:39;;;;;;;13.45;3.40;;;;;;;27.49;43.50;96772.75;5113532;28;20459;-42
2022/06/25 04:58:05;;;;;;;8.43;3.30;;;;;;;27.51;43.22;96781.34;5113341;28;20051;-41
2022/06/25 05:00:30;;;;;;;7.28;2.72;;;;;;;27.56;43.45;96781.81;5113184;28;20019;-42
2022/06/25 05:02:56;;;;;;;10.35;2.83;;;;;;;27.51;43.72;96791.72;5113451;28;20031;-41
2022/06/25 05:05:21;;;;;;;9.00;2.90;;;;;;;27.48;44.00;96787.97;5113437;28;20388;-42
2022/06/25 05:07:47;;;;;;;11.20;3.88;;;;;;;27.44;44.01;96787.53;5113337;28;20023;-42
2022/06/25 05:10:12;;;;;;;10.40;2.75;;;;;;;27.39;43.72;96785.59;5113323;28;20029;-41
2022/06/25 05:15:22;;;;;;;11.38;3.53;;;;;;;27.43;43.67;96774.88;5117001;28;20027;-41
2022/06/25 05:17:48;;;;;;;8.23;2.78;;;;;;;27.46;43.97;96779.38;5117207;28;20020;-42
2022/06/25 05:20:13;;;;;;;9.20;3.03;;;;;;;27.44;43.75;96779.19;5115350;28;20391;-42
2022/06/25 05:22:39;;;;;;;9.20;2.92;;;;;;;27.43;43.63;96788.81;5116928;28;20027;-40
2022/06/25 05:25:05;;;;;;;10.10;2.67;;;;;;;27.39;43.93;96785.59;5116801;28;20031;-42
2022/06/25 05:27:31;;;;;;;9.98;3.17;;;;;;;27.42;44.22;96773.38;5116638;28;20030;-42
2022/06/25 05:29:56;;;;;;;10.07;2.75;;;;;;;27.42;43.79;96776.16;5116712;28;20020;-41
2022/06/25 05:32:22;;;;;;;13.52;3.47;;;;;;;27.41;43.68;96788.59;5116595;28;20023;-42
2022/06/25 05:34:48;;;;;;;8.02;3.05;;;;;;;27.43;43.90;96791.59;5116616;28;20034;-40
2022/06/25 05:37:15;;;;;;;9.13;3.00;;;;;;;27.43;43.97;96788.81;5116409;28;20047;-42
2022/06/25 05:39:40;;;;;;;9.32;3.25;;;;;;;27.44;43.76;96790.31;5116816;28;20387;-41
2022/06/25 05:42:06;;;;;;;10.13;2.78;;;;;;;27.44;43.96;96784.00;5116269;28;20023;-42
2022/06/25 05:44:32;;;;;;;13.52;3.00;;;;;;;27.41;44.61;96776.69;5116263;27;20023;-41
2022/06/25 05:46:57;;;;;;;6.88;2.95;;;;;;;27.43;44.16;96776.91;5116409;28;20016;-42
2022/06/25 05:49:24;;;;;;;7.32;2.88;;;;;;;27.42;44.41;96772.63;5116312;28;20023;-41
2022/06/25 05:51:50;;;;;;;7.68;3.13;;;;;;;27.45;44.03;96782.69;5116252;28;20452;-41
2022/06/25 05:54:16;;;;;;;10.07;3.45;;;;;;;27.45;44.12;96780.66;5116244;28;20034;-42
2022/06/25 05:56:42;;;;;;;12.02;3.25;;;;;;;27.45;43.99;96780.66;5115995;28;20043;-42
2022/06/25 05:59:08;;;;;;;11.10;3.50;;;;;;;27.45;44.49;96788.25;5114853;28;20361;-42
2022/06/25 06:01:33;;;;;;;8.75;2.80;;;;;;;27.36;44.42;96797.78;5115864;28;20479;-41
2022/06/25 06:03:58;;;;;;;9.45;2.97;;;;;;;27.37;44.42;96799.28;5115888;28;20423;-42
2022/06/25 06:06:24;;;;;;;11.38;3.20;;;;;;;27.39;44.31;96802.28;5116073;28;20097;-41
2022/06/25 06:08:49;;;;;;;8.20;2.70;;;;;;;27.39;44.71;96796.72;5116091;28;20031;-42
2022/06/25 06:11:15;;;;;;;11.98;3.38;;;;;;;27.37;44.75;96793.72;5114970;28;20079;-42
2022/06/25 06:13:41;;;;;;;13.88;3.50;;;;;;;27.41;44.37;96798.97;5112527;28;20058;-42
2022/06/25 06:16:06;;;;;;;11.50;3.63;;;;;;;27.39;44.45;96804.31;5113718;28;20024;-41
2022/06/25 06:18:32;;;;;;;10.00;3.28;;;;;;;27.38;44.31;96811.94;5113741;27;20051;-43
2022/06/25 06:20:58;;;;;;;9.98;3.80;;;;;;;27.37;44.80;96798.53;5113878;28;20043;-42
2022/06/25 06:23:23;;;;;;;7.78;2.45;;;;;;;27.37;44.25;96809.66;5113494;28;20026;-41
2022/06/25 06:25:49;;;;;;;11.98;3.83;;;;;;;27.42;44.25;96812.38;5113657;28;20463;-42
2022/06/25 06:28:16;;;;;;;7.60;3.70;;;;;;;27.35;44.60;96812.97;5113817;28;20033;-42
2022/06/25 06:30:42;;;;;;;14.48;3.90;;;;;;;27.41;44.27;96810.13;5113474;28;20079;-40
2022/06/25 06:33:08;;;;;;;10.07;3.42;;;;;;;27.38;44.31;96806.34;5113429;28;20519;-42
2022/06/25 06:35:33;;;;;;;10.57;4.38;;;;;;;27.40;44.57;96803.78;5112469;28;20028;-42
2022/06/25 06:37:59;;;;;;;10.18;3.28;;;;;;;27.39;44.40;96807.09;5113481;28;20561;-41
2022/06/25 06:40:24;;;;;;;7.93;3.33;;;;;;;27.38;44.91;96800.78;5113281;28;20080;-41
2022/06/25 06:42:50;;;;;;;8.02;3.55;;;;;;;27.38;44.74;96788.88;5113225;28;20460;-42
2022/06/25 06:45:17;;;;;;;10.98;3.53;;;;;;;27.42;44.80;96790.09;5113457;28;20031;-42
2022/06/25 06:47:42;;;;;;;11.77;3.70;;;;;;;27.32;44.69;96805.72;5112976;28;20499;-40
2022/06/25 06:50:10;;;;;;;11.70;3.65;;;;;;;27.35;45.07;96804.63;5113280;28;20038;-43
2022/06/25 06:52:36;;;;;;;11.73;3.67;;;;;;;27.38;44.69;96811.19;5111758;28;20028;-43
2022/06/25 06:55:04;;;;;;;9.15;3.53;;;;;;;27.33;44.54;96821.09;5113301;28;20019;-42
2022/06/25 06:57:30;;;;;;;8.95;3.65;;;;;;;27.36;44.83;96828.41;5112936;28;20046;-43
2022/06/25 06:59:58;;;;;;;8.82;3.10;;;;;;;27.24;45.12;96835.44;5112696;27;20032;-42
2022/06/25 07:02:26;;;;;;;7.85;3.17;;;;;;;27.26;45.64;96830.09;5112773;28;20055;-42
2022/06/25 07:04:52;;;;;;;7.45;3.55;;;;;;;27.36;44.89;96830.44;5112798;27;20051;-42
2022/06/25 07:07:18;;;;;;;10.45;3.25;;;;;;;27.34;45.21;96824.66;5111083;28;20471;-41
2022/06/25 07:09:44;;;;;;;9.23;2.88;;;;;;;27.32;45.24;96821.66;5112837;28;20204;-42
2022/06/25 07:12:10;;;;;;;9.40;3.38;;;;;;;27.15;45.72;96817.09;5112441;28;20463;-42
2022/06/25 07:14:35;;;;;;;11.05;2.92;;;;;;;27.20;45.43;96826.63;5112804;28;20382;-40
2022/06/25 07:17:01;;;;;;;7.75;2.90;;;;;;;27.19;45.13;96819.56;5112702;28;20028;-42
2022/06/25 07:19:27;;;;;;;10.73;3.00;;;;;;;27.12;46.10;96829.28;5112749;28;20024;-38
2022/06/25 07:21:54;;;;;;;9.07;3.00;;;;;;;27.09;46.61;96829.56;5111143;28;20039;-41
2022/06/25 07:24:21;;;;;;;10.93;3.45;;;;;;;27.06;46.59;96825.06;5112242;28;20110;-42
2022/06/25 07:26:47;;;;;;;8.30;2.65;;;;;;;26.96;46.96;96830.25;5112508;28;20035;-42
2022/06/25 07:29:13;;;;;;;11.27;3.33;;;;;;;26.95;46.76;96833.56;5112308;28;20028;-39
2022/06/25 07:31:38;;;;;;;9.52;3.42;;;;;;;26.96;47.11;96832.28;5110964;28;20038;-38
2022/06/25 07:34:04;;;;;;;6.57;3.00;;;;;;;27.01;46.84;96823.09;5111847;28;20019;-42
2022/06/25 07:36:30;;;;;;;9.18;3.40;;;;;;;26.92;47.53;96826.25;5113882;28;20102;-39
2022/06/25 07:38:56;;;;;;;13.32;3.10;;;;;;;26.97;47.47;96820.63;5114345;28;20019;-42
2022/06/25 07:41:21;;;;;;;8.55;2.75;;;;;;;27.05;46.73;96829.13;5114106;28;20164;-41
2022/06/25 07:43:47;;;;;;;8.77;2.60;;;;;;;27.07;46.83;96838.47;5113892;28;20024;-41
2022/06/25 07:46:14;;;;;;;9.15;2.97;;;;;;;26.93;47.41;96827.78;5114149;28;20016;-39
2022/06/25 07:48:40;;;;;;;7.57;2.67;;;;;;;26.95;47.41;96816.88;5114184;28;20019;-40
2022/06/25 07:53:51;;;;;;;7.63;2.88;;;;;;;26.89;47.88;96816.16;5114105;28;20030;-42
2022/06/25 07:56:16;;;;;;;9.00;3.15;;;;;;;26.97;47.60;96811.50;5113902;28;20023;-41
2022/06/25 07:58:42;;;;;;;8.05;2.85;;;;;;;26.90;47.99;96812.84;5113912;28;20031;-41
2022/06/25 08:01:07;;;;;;;8.18;2.75;;;;;;;26.97;47.99;96808.72;5113849;28;20034;-41
2022/06/25 08:03:33;;;;;;;10.32;3.38;;;;;;;26.70;48.51;96828.03;5113809;28;20115;-39
2022/06/25 08:06:01;;;;;;;10.90;2.67;;;;;;;26.94;48.00;96812.59;5113815;28;20027;-41
2022/06/25 08:08:27;;;;;;;7.97;2.83;;;;;;;26.83;48.35;96805.84;5113680;28;20023;-41
2022/06/25 08:10:52;;;;;;;7.97;2.67;;;;;;;26.92;48.03;96801.19;5113704;28;20058;-40
2022/06/25 08:13:18;;;;;;;9.57;3.50;;;;;;;26.85;48.33;96802.53;5114136;28;20072;-39
2022/06/25 08:15:44;;;;;;;9.63;3.13;;;;;;;26.92;48.01;96801.94;5113536;28;20023;-42
2022/06/25 08:18:10;;;;;;;10.48;2.63;;;;;;;26.93;47.35;96808.31;5113650;28;20072;-39
2022/06/25 08:20:35;;;;;;;10.43;2.75;;;;;;;27.03;47.88;96812.94;5113984;28;20604;-40
2022/06/25 08:23:01;;;;;;;9.95;2.72;;;;;;;27.08;47.11;96812.09;5113712;28;20426;-41
2022/06/25 08:25:26;;;;;;;7.28;2.67;;;;;;;26.97;47.62;96817.84;5113587;28;20080;-40
2022/06/25 08:27:53;;;;;;;7.30;2.83;;;;;;;27.21;46.49;96808.63;5113795;28;20094;-40
2022/06/25 08:30:23;;;;;;;6.55;2.78;;;;;;;27.23;46.35;96806.06;5113560;28;20028;-42
2022/06/25 08:32:49;;;;;;;7.22;2.63;;;;;;;27.24;46.16;96802.00;5113574;28;20032;-42
2022/06/25 08:35:15;;;;;;;7.55;2.80;;;;;;;27.24;46.31;96804.03;5113578;28;20023;-42
2022/06/25 08:37:50;;;;;;;7.47;2.72;;;;;;;26.77;47.36;96804.44;5113543;28;20027;-35
2022/06/25 08:40:18;;;;;;;8.50;2.83;;;;;;;26.62;48.03;96799.28;5113520;28;20020;-34
2022/06/25 08:42:44;;;;;;;7.03;3.05;;;;;;;27.01;46.79;96807.16;5114028;28;20448;-35
2022/06/25 08:45:10;;;;;;;9.18;3.08;;;;;;;26.97;46.97;96819.88;5113686;28;20100;-35
2022/06/25 08:47:44;;;;;;;7.13;2.70;;;;;;;27.06;46.67;96808.38;5115543;28;20065;-35
2022/06/25 08:50:12;;;;;;;7.85;2.80;;;;;;;26.93;46.83;96789.56;5117448;28;20030;-34
2022/06/25 08:52:38;;;;;;;6.93;2.50;;;;;;;27.12;46.00;96795.09;5117271;28;20065;-35
2022/06/25 08:55:05;;;;;;;5.88;2.80;;;;;;;26.98;47.06;96791.50;5117151;28;20031;-34
2022/06/25 08:57:30;;;;;;;8.52;2.92;;;;;;;26.88;47.57;96789.59;5117201;28;20047;-35
2022/06/25 08:59:56;;;;;;;8.18;2.55;;;;;;;26.89;47.52;96796.69;5117164;28;20080;-35
2022/06/25 09:02:22;;;;;;;5.78;2.75;;;;;;;26.96;46.84;96787.75;5117381;28;20134;-34
2022/06/25 09:04:47;;;;;;;12.60;2.90;;;;;;;27.04;46.83;96789.41;5117334;28;20028;-35
2022/06/25 09:07:15;;;;;;;8.90;3.10;;;;;;;27.11;46.16;96791.56;5117325;28;20069;-34
2022/06/25 09:09:51;;;;;;;7.35;2.90;;;;;;;27.12;45.96;96803.47;5117106;28;20031;-34
2022/06/25 09:12:18;;;;;;;4.20;2.58;;;;;;;27.09;46.09;96812.84;5115971;28;20021;-35
2022/06/25 09:14:44;;;;;;;7.75;2.70;;;;;;;26.95;46.56;96814.84;5116738;28;20460;-35
2022/06/25 09:17:14;;;;;;;6.90;2.42;;;;;;;27.02;46.54;96821.81;5115012;28;20122;-35
2022/06/25 09:19:51;;;;;;;9.60;2.95;;;;;;;27.07;46.05;96807.09;5116817;28;20027;-34
2022/06/25 09:22:19;;;;;;;7.63;2.58;;;;;;;27.14;46.21;96809.25;5116721;27;20046;-34
2022/06/25 09:24:55;;;;;;;6.57;2.42;;;;;;;27.16;46.11;96813.03;5116513;28;20028;-35
2022/06/25 09:27:40;;;;;;;5.82;2.33;;;;;;;27.14;46.06;96803.69;5117288;28;20085;-37
2022/06/25 09:30:16;;;;;;;6.50;3.20;;;;;;;27.04;46.80;96808.13;5116288;28;20039;-36
2022/06/25 09:32:56;;;;;;;9.10;2.50;;;;;;;26.82;47.05;96798.78;5116785;28;20016;-35
2022/06/25 09:35:33;;;;;;;8.32;2.72;;;;;;;26.81;47.36;96777.81;5095620;28;20103;-35
2022/06/25 09:38:09;;;;;;;10.68;2.90;;;;;;;26.67;47.73;96781.78;5096323;28;20038;-36
2022/06/25 09:40:36;;;;;;;10.07;3.00;;;;;;;26.63;47.55;96777.78;5095431;28;20034;-35
2022/06/25 09:43:15;;;;;;;6.22;2.50;;;;;;;26.99;46.32;96778.34;5095982;28;20050;-35
2022/06/25 09:45:44;;;;;;;7.45;2.78;;;;;;;26.74;47.47;96774.88;5096160;28;20028;-35
2022/06/25 09:48:17;;;;;;;11.15;3.30;;;;;;;26.77;47.46;96776.59;5095847;28;20024;-35
2022/06/25 09:50:43;;;;;;;12.35;2.85;;;;;;;26.81;47.23;96766.69;5096019;28;20361;-35
2022/06/25 09:53:09;;;;;;;14.90;3.08;;;;;;;27.03;46.43;96771.19;5094600;28;20023;-35
2022/06/25 09:55:37;;;;;;;9.48;2.97;;;;;;;27.10;46.24;96775.38;5094528;28;20023;-35
2022/06/25 09:58:04;;;;;;;8.82;3.13;;;;;;;27.07;45.75;96776.47;5095324;28;20073;-35
2022/06/25 10:00:31;;;;;;;7.97;2.50;;;;;;;26.91;46.41;96777.44;5094653;28;20445;-35
2022/06/25 10:02:58;;;;;;;9.20;2.88;;;;;;;26.84;46.26;96778.78;5095760;28;20030;-34
2022/06/25 10:05:40;;;;;;;7.82;3.20;;;;;;;27.09;46.01;96774.63;5095633;28;20038;-35
2022/06/25 10:08:09;;;;;;;9.07;3.30;;;;;;;27.17;45.37;96775.53;5095750;28;20087;-35
2022/06/25 10:10:39;;;;;;;6.68;2.75;;;;;;;27.01;45.90;96773.75;5096608;28;20436;-35
2022/06/25 10:13:06;;;;;;;8.77;2.53;;;;;;;27.12;45.83;96773.59;5096247;27;20038;-36
2022/06/25 10:15:32;;;;;;;9.38;2.72;;;;;;;27.20;45.20;96789.69;5124615;27;20027;-35
2022/06/25 10:18:01;;;;;;;6.57;2.40;;;;;;;27.08;45.75;96770.34;5113836;28;20393;-35
2022/06/25 10:20:28;;;;;;;7.22;3.15;;;;;;;27.18;45.04;96773.50;5114212;28;20371;-35
2022/06/25 10:22:55;;;;;;;9.13;2.35;;;;;;;27.06;45.09;96775.72;5114251;28;20060;-35
2022/06/25 10:25:23;;;;;;;6.72;2.38;;;;;;;27.06;45.13;96775.72;5113816;28;20098;-34
2022/06/25 10:27:51;;;;;;;5.03;2.40;;;;;;;27.19;44.59;96783.38;5114111;28;20026;-35
2022/06/25 10:30:37;;;;;;;6.72;2.40;;;;;;;27.19;44.75;96772.25;5114002;28;20020;-35
2022/06/25 10:33:03;;;;;;;6.32;2.33;;;;;;;27.18;44.40;96771.47;5129868;27;20027;-35
2022/06/25 10:35:36;;;;;;;8.18;2.13;;;;;;;27.23;44.36;96775.44;5134499;27;20045;-35
2022/06/25 10:38:12;;;;;;;;;;;;;;;27.24;44.10;96779.72;5134722;27;20031;-35
2022/06/25 10:40:55;;;;;;;8.27;2.58;;;;;;;27.17;44.04;96775.53;5133691;27;19940;-35
2022/06/25 10:43:34;;;;;;;8.05;2.42;;;;;;;27.25;43.63;96775.66;5132796;27;20023;-35
2022/06/25 10:45:59;;;;;;;5.72;2.10;;;;;;;27.24;43.54;96785.31;5112464;27;20497;-34
2022/06/25 10:48:26;;;;;;;6.35;2.53;;;;;;;27.30;43.37;96785.97;5113519;28;20019;-35
2022/06/25 10:50:53;;;;;;;6.70;2.40;;;;;;;27.30;43.77;96782.44;5113460;28;20076;-36
2022/06/25 10:53:22;;;;;;;6.00;2.00;;;;;;;27.28;43.46;96769.06;5113149;28;20099;-35
2022/06/25 10:55:47;;;;;;;9.85;2.50;;;;;;;27.27;43.05;96761.22;5113227;28;20527;-35
2022/06/25 10:58:19;;;;;;;5.75;2.08;;;;;;;27.23;42.96;96767.09;5113413;28;20126;-35
2022/06/25 11:01:14;;;;;;;6.55;2.42;;;;;;;27.23;43.03;96771.91;5113677;28;20027;-35
2022/06/25 11:03:43;;;;;;;4.55;2.30;;;;;;;27.24;42.66;96760.25;5121707;27;20023;-35
2022/06/25 11:06:29;;;;;;;9.60;2.65;;;;;;;27.23;42.32;96761.53;5113400;28;20047;-34
2022/06/25 11:09:03;;;;;;;7.68;2.30;;;;;;;27.33;42.48;96770.22;5123337;27;20072;-36
2022/06/25 11:11:30;;;;;;;6.53;2.20;;;;;;;27.39;41.86;96748.63;5130905;27;20550;-36
2022/06/25 11:13:58;;;;;;;8.30;2.20;;;;;;;27.28;41.61;96757.91;5114697;28;20102;-35
2022/06/25 11:16:26;;;;;;;8.23;2.72;;;;;;;27.26;41.81;96763.25;5114560;28;20024;-35
2022/06/25 11:18:54;;;;;;;9.13;2.35;;;;;;;27.32;41.59;96763.94;5113281;28;20135;-35
2022/06/25 11:21:28;;;;;;;5.38;2.20;;;;;;;27.27;41.40;96756.41;5114514;28;20023;-35
2022/06/25 11:24:13;;;;;;;6.82;2.17;;;;;;;27.33;41.33;96745.91;5114532;28;20480;-35
2022/06/25 11:29:33;;;;;;;7.45;1.73;;;;;;;27.38;41.18;96744.34;5114782;28;20106;-35
2022/06/25 11:31:59;;;;;;;6.55;2.53;;;;;;;27.77;39.63;96738.13;5114605;28;20020;-31
2022/06/25 11:34:27;;;;;;;7.70;2.08;;;;;;;29.40;37.13;96750.94;5114281;28;20030;-34
2022/06/25 11:37:02;;;;;;;6.63;2.13;;;;;;;29.83;36.17;96760.78;5114380;28;20023;-35
2022/06/25 11:39:29;;;;;;;8.73;2.10;;;;;;;30.05;35.39;96745.47;5112916;28;20166;-35
2022/06/25 11:41:55;;;;;;;6.38;1.88;;;;;;;30.05;35.53;96748.28;5114096;28;20100;-35
2022/06/25 11:44:21;;;;;;;7.10;1.95;;;;;;;30.09;35.29;96743.84;5114163;28;20098;-35
2022/06/25 11:46:51;;;;;;;6.30;1.90;;;;;;;30.08;36.00;96747.19;5114363;28;20137;-35
2022/06/25 11:49:20;;;;;;;5.88;1.80;;;;;;;30.19;35.69;96756.00;5114060;28;20473;-35
2022/06/25 11:51:51;;;;;;;8.82;2.13;;;;;;;30.09;36.16;96743.84;5113883;28;20459;-35